createdAt,value
2023-04-11T00:01:50.592Z,11.30
2023-04-11T00:04:21.504Z,11.20
2023-04-11T00:06:50.180Z,11.30
2023-04-11T00:09:18.762Z,11.20
2023-04-11T00:11:47.252Z,11.30
2023-04-11T00:14:16.133Z,11.30
2023-04-11T00:16:44.531Z,11.00
2023-04-11T00:19:13.061Z,11.00
2023-04-11T00:21:41.469Z,11.10
2023-04-11T00:24:10.282Z,11.10
2023-04-11T00:26:38.715Z,10.80
2023-04-11T00:29:07.129Z,10.70
2023-04-11T00:31:35.633Z,10.70
2023-04-11T00:34:04.162Z,10.60
2023-04-11T00:36:38.698Z,10.70
2023-04-11T00:39:07.893Z,10.60
2023-04-11T00:41:36.683Z,10.60
2023-04-11T00:44:05.213Z,10.40
2023-04-11T00:46:36.746Z,10.50
2023-04-11T00:49:05.180Z,10.40
2023-04-11T00:51:33.788Z,10.50
2023-04-11T00:54:02.568Z,10.30
2023-04-11T00:56:31.391Z,10.40
2023-04-11T00:59:00.052Z,10.20
2023-04-11T01:01:30.885Z,10.10
2023-04-11T01:04:01.648Z,10.30
2023-04-11T01:06:31.714Z,10.50
2023-04-11T01:09:00.459Z,10.40
2023-04-11T01:11:28.955Z,10.20
2023-04-11T01:13:57.538Z,10.60
2023-04-11T01:16:26.004Z,10.30
2023-04-11T01:18:54.646Z,10.20
2023-04-11T01:21:23.977Z,10.20
2023-04-11T01:23:57.398Z,10.30
2023-04-11T01:26:26.507Z,10.40
2023-04-11T01:28:55.164Z,10.40
2023-04-11T01:31:23.760Z,10.30
2023-04-11T01:33:52.210Z,10.30
2023-04-11T01:36:20.754Z,10.40
2023-04-11T01:38:50.228Z,10.20
2023-04-11T01:41:20.432Z,9.80
2023-04-11T01:43:49.334Z,9.50
2023-04-11T01:46:18.239Z,9.30
2023-04-11T01:48:46.783Z,9.20
2023-04-11T01:51:15.273Z,9.10
2023-04-11T01:53:43.753Z,9.10
2023-04-11T01:56:12.677Z,9.10
2023-04-11T01:58:41.949Z,9.00
2023-04-11T02:01:10.710Z,8.90
2023-04-11T02:03:39.156Z,8.80
2023-04-11T02:06:07.800Z,8.60
2023-04-11T02:08:36.494Z,8.70
2023-04-11T02:11:05.421Z,8.40
2023-04-11T02:13:33.786Z,8.30
2023-04-11T02:16:15.781Z,8.30
2023-04-11T02:18:46.002Z,8.20
2023-04-11T02:21:14.435Z,8.00
2023-04-11T02:23:42.861Z,8.00
2023-04-11T02:26:11.642Z,7.90
2023-04-11T02:28:40.037Z,7.80
2023-04-11T02:31:08.831Z,8.00
2023-04-11T02:33:37.297Z,8.20
2023-04-11T02:36:05.810Z,7.60
2023-04-11T02:38:34.411Z,7.50
2023-04-11T02:41:02.832Z,7.50
2023-04-11T02:43:31.366Z,7.50
2023-04-11T02:46:11.557Z,7.30
2023-04-11T02:48:40.902Z,7.50
2023-04-11T02:51:09.494Z,7.30
2023-04-11T02:53:38.179Z,7.30
2023-04-11T02:56:08.152Z,7.30
2023-04-11T02:58:39.757Z,7.70
2023-04-11T03:01:08.969Z,7.30
2023-04-11T03:03:37.428Z,7.30
2023-04-11T03:06:07.749Z,7.20
2023-04-11T03:08:40.001Z,7.20
2023-04-11T03:11:08.474Z,7.20
2023-04-11T03:13:40.195Z,7.10
2023-04-11T03:16:09.042Z,7.10
2023-04-11T03:18:37.441Z,7.20
2023-04-11T03:21:08.360Z,7.00
2023-04-11T03:23:36.832Z,6.90
2023-04-11T03:26:07.094Z,7.00
2023-04-11T03:28:35.789Z,6.90
2023-04-11T03:31:04.226Z,7.00
2023-04-11T03:33:32.637Z,7.00
2023-04-11T03:36:01.702Z,7.10
2023-04-11T03:38:30.260Z,7.10
2023-04-11T03:40:58.696Z,7.20
2023-04-11T03:43:27.071Z,7.30
2023-04-11T03:45:55.497Z,7.50
2023-04-11T03:48:27.184Z,7.40
2023-04-11T03:50:55.761Z,7.30
2023-04-11T03:53:24.149Z,7.10
2023-04-11T03:55:53.735Z,7.10
2023-04-11T03:58:22.420Z,7.30
2023-04-11T04:00:50.805Z,7.30
2023-04-11T04:03:19.403Z,7.20
2023-04-11T04:05:48.029Z,6.90
2023-04-11T04:08:16.477Z,7.00
2023-04-11T04:10:44.856Z,7.10
2023-04-11T04:13:13.333Z,7.20
2023-04-11T04:15:41.707Z,6.90
2023-04-11T04:18:10.401Z,7.20
2023-04-11T04:20:38.856Z,7.30
2023-04-11T04:23:07.285Z,7.40
2023-04-11T04:25:36.276Z,7.50
2023-04-11T04:28:04.724Z,7.30
2023-04-11T04:30:33.499Z,7.60
2023-04-11T04:33:01.921Z,7.50
2023-04-11T04:35:30.431Z,7.50
2023-04-11T04:37:58.828Z,7.60
2023-04-11T04:40:28.242Z,7.70
2023-04-11T04:42:59.688Z,7.40
2023-04-11T04:45:28.162Z,7.30
2023-04-11T04:47:56.796Z,7.20
2023-04-11T04:50:25.265Z,7.30
2023-04-11T04:52:53.685Z,7.20
2023-04-11T04:55:22.089Z,7.10
2023-04-11T04:57:50.565Z,7.20
2023-04-11T05:00:21.158Z,7.20
2023-04-11T05:02:55.508Z,7.10
2023-04-11T05:05:23.976Z,7.30
2023-04-11T05:07:52.402Z,7.30
2023-04-11T05:10:20.922Z,7.20
2023-04-11T05:12:49.340Z,7.00
2023-04-11T05:15:18.541Z,7.20
2023-04-11T05:17:47.058Z,7.30
2023-04-11T05:20:16.237Z,7.30
2023-04-11T05:22:45.272Z,7.10
2023-04-11T05:25:13.744Z,7.30
2023-04-11T05:27:42.169Z,7.40
2023-04-11T05:30:11.129Z,7.70
2023-04-11T05:32:39.637Z,7.70
2023-04-11T05:35:08.559Z,7.70
2023-04-11T05:37:37.991Z,7.70
2023-04-11T05:40:09.355Z,7.40
2023-04-11T05:42:37.947Z,7.30
2023-04-11T05:45:07.215Z,7.20
2023-04-11T05:47:35.706Z,7.40
2023-04-11T05:50:04.165Z,7.40
2023-04-11T05:52:32.543Z,7.20
2023-04-11T05:55:02.161Z,7.20
2023-04-11T05:57:30.552Z,7.40
2023-04-11T06:00:02.605Z,7.30
2023-04-11T06:02:31.187Z,6.90
2023-04-11T06:04:59.721Z,6.90
2023-04-11T06:07:28.670Z,7.10
2023-04-11T06:09:57.101Z,7.20
2023-04-11T06:12:25.553Z,7.40
2023-04-11T06:14:54.014Z,7.30
2023-04-11T06:17:22.460Z,7.40
2023-04-11T06:19:50.869Z,7.50
2023-04-11T06:22:19.278Z,7.20
2023-04-11T06:24:48.488Z,6.90
2023-04-11T06:27:17.246Z,7.00
2023-04-11T06:29:45.689Z,7.20
2023-04-11T06:32:14.133Z,7.20
2023-04-11T06:34:42.742Z,7.20
2023-04-11T06:37:11.383Z,7.40
2023-04-11T06:39:39.800Z,6.80
2023-04-11T06:42:08.254Z,6.90
2023-04-11T06:44:37.079Z,7.00
2023-04-11T06:47:05.649Z,6.90
2023-04-11T06:49:34.757Z,6.90
2023-04-11T06:52:04.584Z,6.90
2023-04-11T06:54:32.947Z,7.30
2023-04-11T06:57:01.391Z,7.00
2023-04-11T06:59:29.923Z,6.90
2023-04-11T07:01:59.601Z,6.60
2023-04-11T07:04:28.513Z,6.80
2023-04-11T07:06:57.047Z,7.00
2023-04-11T07:09:25.443Z,6.70
2023-04-11T07:11:53.815Z,6.70
2023-04-11T07:14:22.248Z,6.60
2023-04-11T07:16:50.611Z,6.70
2023-04-11T07:19:18.996Z,6.90
2023-04-11T07:21:47.483Z,6.90
2023-04-11T07:24:19.226Z,6.80
2023-04-11T07:26:48.800Z,6.90
2023-04-11T07:29:17.185Z,7.20
2023-04-11T07:31:45.915Z,6.90
2023-04-11T07:34:14.333Z,7.10
2023-04-11T07:36:42.862Z,6.90
2023-04-11T07:39:13.084Z,6.90
2023-04-11T07:41:41.606Z,6.80
2023-04-11T07:44:10.418Z,6.50
2023-04-11T07:46:38.872Z,6.60
2023-04-11T07:49:07.331Z,6.50
2023-04-11T07:51:35.724Z,6.40
2023-04-11T07:54:04.203Z,6.30
2023-04-11T07:56:32.678Z,6.30
2023-04-11T07:59:02.160Z,6.30
2023-04-11T08:01:30.618Z,6.30
2023-04-11T08:03:59.706Z,6.30
2023-04-11T08:06:29.854Z,6.60
2023-04-11T08:08:59.521Z,6.50
2023-04-11T08:11:28.097Z,6.40
2023-04-11T08:13:56.884Z,6.60
2023-04-11T08:16:25.629Z,6.70
2023-04-11T08:18:54.077Z,6.70
2023-04-11T08:21:25.876Z,6.50
2023-04-11T08:23:54.533Z,6.60
2023-04-11T08:26:23.495Z,6.50
2023-04-11T08:28:51.945Z,6.30
2023-04-11T08:31:23.062Z,6.10
2023-04-11T08:33:52.191Z,6.00
2023-04-11T08:36:20.622Z,5.90
2023-04-11T08:38:49.131Z,6.10
2023-04-11T08:41:17.560Z,6.30
2023-04-11T08:43:47.760Z,6.10
2023-04-11T08:46:17.293Z,6.30
2023-04-11T08:48:46.076Z,6.10
2023-04-11T08:51:15.544Z,6.40
2023-04-11T08:53:44.928Z,6.50
2023-04-11T08:56:19.974Z,6.50
2023-04-11T08:58:49.951Z,6.40
2023-04-11T09:01:28.399Z,6.40
2023-04-11T09:03:57.534Z,6.60
2023-04-11T09:06:27.660Z,6.60
2023-04-11T09:08:56.033Z,6.60
2023-04-11T09:11:25.167Z,6.60
2023-04-11T09:14:10.392Z,6.60
2023-04-11T09:16:54.040Z,6.60
2023-04-11T09:19:30.202Z,6.90
2023-04-11T09:22:04.982Z,6.40
2023-04-11T09:24:35.344Z,6.60
2023-04-11T09:27:14.497Z,6.30
2023-04-11T09:29:46.195Z,6.30
2023-04-11T09:32:31.485Z,6.00
2023-04-11T09:35:13.796Z,6.20
2023-04-11T09:37:48.205Z,6.30
2023-04-11T09:40:18.544Z,6.50
2023-04-11T09:42:57.009Z,6.50
2023-04-11T09:45:27.349Z,6.50
2023-04-11T09:47:58.493Z,6.60
2023-04-11T09:50:28.928Z,6.60
2023-04-11T09:52:59.052Z,6.60
2023-04-11T09:55:28.187Z,6.50
2023-04-11T09:57:56.842Z,6.60
2023-04-11T10:00:30.804Z,6.30
2023-04-11T10:03:00.041Z,6.10
2023-04-11T10:05:30.420Z,6.20
2023-04-11T10:08:17.957Z,6.20
2023-04-11T10:10:46.719Z,6.30
2023-04-11T10:13:43.940Z,6.40
2023-04-11T10:16:16.201Z,6.60
2023-04-11T10:18:57.138Z,6.60
2023-04-11T10:21:31.517Z,6.50
2023-04-11T10:24:17.559Z,6.60
2023-04-11T10:27:04.024Z,6.80
2023-04-11T10:29:32.408Z,6.40
2023-04-11T10:32:20.925Z,6.60
2023-04-11T10:34:52.306Z,6.40
2023-04-11T10:37:37.338Z,6.60
2023-04-11T10:40:11.051Z,6.30
2023-04-11T10:42:47.523Z,6.00
2023-04-11T10:45:29.106Z,6.00
2023-04-11T10:48:04.669Z,5.80
2023-04-11T10:50:33.101Z,6.00
2023-04-11T10:53:06.048Z,6.00
2023-04-11T10:55:54.647Z,6.00
2023-04-11T10:58:23.102Z,5.90
2023-04-11T11:00:55.049Z,6.20
2023-04-11T11:03:26.535Z,6.30
2023-04-11T11:06:03.130Z,6.20
2023-04-11T11:08:34.013Z,6.00
2023-04-11T11:11:12.886Z,6.10
2023-04-11T11:13:42.401Z,6.10
2023-04-11T11:16:14.951Z,6.20
2023-04-11T11:18:47.653Z,6.10
2023-04-11T11:21:26.782Z,6.00
2023-04-11T11:24:04.185Z,5.90
2023-04-11T11:26:43.937Z,6.30
2023-04-11T11:29:12.968Z,5.80
2023-04-11T11:31:46.280Z,5.90
2023-04-11T11:34:23.646Z,6.00
2023-04-11T11:36:53.711Z,6.00
2023-04-11T11:39:23.368Z,6.10
2023-04-11T11:41:52.932Z,6.10
2023-04-11T11:44:26.233Z,5.90
2023-04-11T11:47:06.825Z,6.00
2023-04-11T11:49:48.990Z,6.00
2023-04-11T11:52:35.350Z,6.20
2023-04-11T11:55:08.831Z,5.90
2023-04-11T11:57:38.915Z,6.00
2023-04-11T12:00:10.973Z,6.00
2023-04-11T12:02:43.296Z,6.20
2023-04-11T12:05:15.393Z,6.10
2023-04-11T12:07:43.926Z,5.90
2023-04-11T12:10:17.740Z,5.70
2023-04-11T12:12:53.449Z,5.70
2023-04-11T12:15:27.391Z,6.00
2023-04-11T12:17:56.359Z,6.00
2023-04-11T12:20:28.306Z,5.70
2023-04-11T12:22:57.057Z,5.80
2023-04-11T12:25:28.384Z,6.00
2023-04-11T12:27:56.808Z,5.70
2023-04-11T12:30:25.354Z,5.80
2023-04-11T12:32:53.852Z,5.80
2023-04-11T12:35:22.299Z,5.90
2023-04-11T12:37:51.111Z,5.80
2023-04-11T12:40:20.352Z,5.90
2023-04-11T12:42:56.739Z,5.70
2023-04-11T12:45:26.805Z,5.70
2023-04-11T12:47:55.336Z,5.90
2023-04-11T12:50:24.479Z,5.80
2023-04-11T12:52:55.160Z,5.70
2023-04-11T12:55:24.784Z,5.90
2023-04-11T12:57:53.363Z,5.90
2023-04-11T13:00:21.991Z,5.90
2023-04-11T13:02:50.558Z,6.00
2023-04-11T13:05:19.484Z,5.80
2023-04-11T13:07:48.330Z,5.70
2023-04-11T13:10:17.655Z,5.80
2023-04-11T13:12:47.266Z,5.80
2023-04-11T13:15:17.557Z,6.20
2023-04-11T13:17:46.278Z,6.00
2023-04-11T13:20:15.044Z,6.00
2023-04-11T13:22:44.269Z,6.00
2023-04-11T13:25:13.162Z,5.90
2023-04-11T13:27:43.281Z,5.90
2023-04-11T13:30:12.645Z,5.90
2023-04-11T13:32:41.210Z,5.90
2023-04-11T13:35:10.264Z,5.80
2023-04-11T13:37:38.734Z,5.90
2023-04-11T13:40:11.679Z,5.90
2023-04-11T13:42:40.234Z,5.70
2023-04-11T13:45:09.294Z,5.80
2023-04-11T13:47:38.958Z,5.90
2023-04-11T13:50:09.959Z,6.30
2023-04-11T13:52:38.422Z,5.80
2023-04-11T13:55:07.693Z,5.90
2023-04-11T13:57:36.167Z,5.70
2023-04-11T14:00:22.896Z,6.00
2023-04-11T14:02:52.541Z,5.80
2023-04-11T14:05:21.348Z,5.80
2023-04-11T14:07:50.512Z,5.80
2023-04-11T14:10:18.961Z,5.90
2023-04-11T14:12:47.739Z,5.80
2023-04-11T14:15:16.186Z,5.70
2023-04-11T14:17:44.904Z,5.80
2023-04-11T14:20:14.059Z,6.10
2023-04-11T14:22:46.456Z,6.00
2023-04-11T14:25:16.499Z,6.10
2023-04-11T14:27:45.718Z,6.20
2023-04-11T14:30:14.573Z,5.70
2023-04-11T14:32:43.147Z,5.90
2023-04-11T14:35:11.694Z,5.90
2023-04-11T14:37:40.122Z,5.90
2023-04-11T14:40:11.585Z,5.90
2023-04-11T14:42:40.673Z,5.90
2023-04-11T14:45:09.451Z,6.00
2023-04-11T14:47:38.368Z,6.30
2023-04-11T14:50:07.858Z,6.10
2023-04-11T14:52:36.394Z,6.30
2023-04-11T14:55:04.917Z,6.20
2023-04-11T14:57:52.049Z,6.00
2023-04-11T15:00:20.782Z,6.10
2023-04-11T15:02:51.955Z,6.20
2023-04-11T15:05:21.180Z,6.00
2023-04-11T15:07:51.322Z,6.20
2023-04-11T15:10:22.377Z,6.50
2023-04-11T15:12:51.199Z,6.50
2023-04-11T15:15:19.614Z,6.60
2023-04-11T15:17:49.959Z,6.60
2023-04-11T15:20:20.439Z,6.60
2023-04-11T15:22:49.590Z,6.70
2023-04-11T15:25:18.284Z,6.60
2023-04-11T15:27:46.883Z,6.60
2023-04-11T15:30:16.066Z,6.40
2023-04-11T15:32:44.882Z,6.60
2023-04-11T15:35:13.652Z,6.60
2023-04-11T15:37:42.346Z,6.60
2023-04-11T15:40:16.123Z,6.90
2023-04-11T15:42:44.610Z,6.90
2023-04-11T15:45:13.353Z,6.80
2023-04-11T15:47:41.978Z,6.80
2023-04-11T15:50:10.792Z,6.90
2023-04-11T15:52:39.186Z,6.90
2023-04-11T15:55:08.388Z,7.10
2023-04-11T15:57:37.124Z,7.10
2023-04-11T16:00:10.049Z,7.60
2023-04-11T16:02:39.039Z,8.10
2023-04-11T16:05:08.598Z,8.50
2023-04-11T16:07:37.128Z,9.30
2023-04-11T16:10:06.021Z,10.30
2023-04-11T16:12:34.948Z,10.70
2023-04-11T16:15:04.153Z,10.70
2023-04-11T16:17:32.551Z,10.90
2023-04-11T16:20:01.459Z,10.60
2023-04-11T16:22:29.883Z,10.90
2023-04-11T16:24:58.605Z,10.50
2023-04-11T16:27:26.979Z,9.80
2023-04-11T16:30:00.625Z,10.00
2023-04-11T16:32:29.840Z,9.30
2023-04-11T16:34:58.634Z,9.00
2023-04-11T16:37:27.462Z,9.10
2023-04-11T16:39:56.169Z,9.30
2023-04-11T16:42:24.706Z,9.40
2023-04-11T16:44:53.361Z,9.50
2023-04-11T16:47:26.796Z,9.50
2023-04-11T16:49:55.819Z,9.20
2023-04-11T16:52:24.290Z,9.70
2023-04-11T16:54:52.910Z,9.70
2023-04-11T16:57:21.343Z,10.00
2023-04-11T16:59:49.764Z,10.20
2023-04-11T17:02:18.312Z,10.90
2023-04-11T17:04:46.938Z,11.20
2023-04-11T17:07:15.458Z,10.80
2023-04-11T17:09:43.879Z,10.50
2023-04-11T17:12:12.413Z,10.50
2023-04-11T17:14:40.780Z,10.90
2023-04-11T17:17:09.222Z,10.90
2023-04-11T17:19:37.741Z,10.50
2023-04-11T17:22:06.734Z,10.10
2023-04-11T17:24:35.796Z,9.90
2023-04-11T17:27:04.195Z,9.70
2023-04-11T17:29:32.757Z,9.40
2023-04-11T17:32:01.219Z,9.40
2023-04-11T17:34:29.994Z,9.50
2023-04-11T17:36:58.466Z,9.40
2023-04-11T17:39:26.939Z,9.60
2023-04-11T17:41:56.205Z,9.10
2023-04-11T17:44:24.706Z,9.50
2023-04-11T17:46:53.180Z,10.30
2023-04-11T17:49:22.411Z,10.70
2023-04-11T17:51:59.157Z,11.40
2023-04-11T17:54:28.232Z,12.30
2023-04-11T17:56:57.153Z,12.50
2023-04-11T17:59:26.217Z,12.90
2023-04-11T18:01:56.769Z,13.10
2023-04-11T18:04:25.397Z,13.00
2023-04-11T18:06:53.838Z,12.90
2023-04-11T18:09:22.761Z,13.80
2023-04-11T18:11:51.374Z,14.00
2023-04-11T18:14:19.802Z,14.70
2023-04-11T18:16:48.449Z,15.20
2023-04-11T18:19:16.917Z,14.80
2023-04-11T18:21:45.317Z,14.00
2023-04-11T18:24:13.739Z,13.80
2023-04-11T18:26:42.133Z,13.40
2023-04-11T18:29:10.497Z,12.60
2023-04-11T18:31:38.938Z,12.90
2023-04-11T18:34:08.295Z,12.00
2023-04-11T18:36:37.424Z,11.70
2023-04-11T18:39:06.126Z,11.60
2023-04-11T18:41:34.536Z,11.20
2023-04-11T18:44:03.562Z,10.90
2023-04-11T18:46:34.221Z,10.80
2023-04-11T18:49:06.012Z,11.10
2023-04-11T18:51:36.414Z,11.20
2023-04-11T18:54:05.320Z,11.10
2023-04-11T18:56:34.307Z,11.20
2023-04-11T18:59:06.531Z,10.90
2023-04-11T19:01:37.940Z,11.30
2023-04-11T19:04:07.622Z,11.20
2023-04-11T19:06:36.678Z,11.20
2023-04-11T19:09:05.198Z,11.60
2023-04-11T19:11:33.751Z,11.90
2023-04-11T19:14:03.013Z,11.70
2023-04-11T19:16:32.737Z,12.00
2023-04-11T19:19:01.976Z,12.20
2023-04-11T19:21:30.444Z,11.80
2023-04-11T19:24:00.076Z,12.00
2023-04-11T19:26:28.669Z,12.00
2023-04-11T19:28:57.170Z,12.60
2023-04-11T19:31:26.525Z,12.40
2023-04-11T19:33:55.680Z,12.70
2023-04-11T19:36:24.576Z,12.90
2023-04-11T19:38:53.417Z,14.10
2023-04-11T19:41:21.916Z,14.70
2023-04-11T19:43:50.333Z,14.30
2023-04-11T19:46:18.998Z,15.40
2023-04-11T19:48:48.034Z,15.70
2023-04-11T19:51:18.060Z,16.40
2023-04-11T19:53:46.791Z,17.00
2023-04-11T19:56:17.494Z,16.40
2023-04-11T19:58:45.988Z,14.90
2023-04-11T20:01:16.477Z,14.60
2023-04-11T20:03:45.160Z,14.10
2023-04-11T20:06:13.725Z,14.10
2023-04-11T20:08:42.183Z,14.30
2023-04-11T20:11:14.761Z,14.30
2023-04-11T20:13:43.205Z,14.10
2023-04-11T20:16:12.128Z,14.00
2023-04-11T20:18:40.596Z,13.80
2023-04-11T20:21:10.175Z,13.90
2023-04-11T20:23:38.596Z,13.50
2023-04-11T20:26:07.142Z,13.20
2023-04-11T20:28:35.602Z,12.90
2023-04-11T20:31:05.291Z,13.50
2023-04-11T20:33:33.740Z,13.40
2023-04-11T20:36:04.051Z,13.90
2023-04-11T20:38:32.485Z,13.50
2023-04-11T20:41:04.486Z,13.00
2023-04-11T20:43:33.126Z,12.60
2023-04-11T20:46:01.605Z,12.20
2023-04-11T20:48:30.561Z,12.10
2023-04-11T20:51:02.552Z,12.30
2023-04-11T20:53:31.257Z,12.50
2023-04-11T20:55:59.652Z,11.40
2023-04-11T20:58:28.734Z,11.40
2023-04-11T21:00:57.676Z,11.30
2023-04-11T21:03:26.241Z,11.70
2023-04-11T21:05:54.666Z,11.80
2023-04-11T21:08:24.582Z,11.80
2023-04-11T21:10:52.949Z,11.20
2023-04-11T21:13:21.396Z,11.60
2023-04-11T21:15:49.939Z,11.70
2023-04-11T21:18:18.393Z,11.80
2023-04-11T21:20:47.087Z,11.30
2023-04-11T21:23:15.533Z,11.20
2023-04-11T21:25:43.935Z,11.40
2023-04-11T21:28:14.481Z,11.10
2023-04-11T21:30:43.192Z,11.20
2023-04-11T21:33:11.679Z,11.10
2023-04-11T21:35:40.109Z,10.60
2023-04-11T21:38:09.372Z,10.70
2023-04-11T21:40:37.757Z,10.70
2023-04-11T21:43:07.320Z,10.70
2023-04-11T21:45:35.788Z,11.10
2023-04-11T21:48:04.320Z,11.00
2023-04-11T21:50:32.741Z,11.20
2023-04-11T21:53:01.163Z,10.90
2023-04-11T21:55:29.548Z,11.10
2023-04-11T21:57:58.034Z,10.90
2023-04-11T22:00:26.713Z,10.90
2023-04-11T22:02:55.329Z,11.10
2023-04-11T22:05:24.327Z,11.30
2023-04-11T22:07:53.053Z,11.10
2023-04-11T22:10:24.313Z,10.90
2023-04-11T22:12:55.224Z,11.00
2023-04-11T22:15:24.697Z,11.20
2023-04-11T22:17:55.226Z,11.30
2023-04-11T22:20:23.652Z,11.20
2023-04-11T22:22:52.052Z,11.40
2023-04-11T22:25:23.024Z,11.10
2023-04-11T22:27:55.049Z,11.10
2023-04-11T22:30:24.374Z,11.20
2023-04-11T22:32:54.779Z,10.90
2023-04-11T22:35:25.586Z,11.20
2023-04-11T22:37:56.157Z,11.10
2023-04-11T22:40:25.216Z,11.00
2023-04-11T22:42:54.484Z,10.70
2023-04-11T22:45:24.355Z,10.30
2023-04-11T22:47:55.024Z,9.90
2023-04-11T22:50:23.669Z,9.90
2023-04-11T22:52:52.389Z,10.00
2023-04-11T22:55:21.842Z,10.30
2023-04-11T22:57:50.249Z,10.00
2023-04-11T23:00:19.600Z,9.70
2023-04-11T23:02:48.449Z,9.40
2023-04-11T23:05:17.606Z,9.60
2023-04-11T23:07:46.078Z,9.20
2023-04-11T23:10:18.171Z,9.00
2023-04-11T23:12:46.686Z,8.90
2023-04-11T23:15:15.546Z,9.00
2023-04-11T23:17:44.650Z,9.10
2023-04-11T23:20:14.127Z,9.30
2023-04-11T23:22:44.596Z,9.50
2023-04-11T23:25:15.727Z,9.60
2023-04-11T23:27:44.506Z,9.70
2023-04-11T23:30:13.800Z,10.20
2023-04-11T23:32:43.635Z,10.30
2023-04-11T23:35:12.644Z,10.70
2023-04-11T23:37:41.707Z,11.10
2023-04-11T23:40:11.611Z,11.10
2023-04-11T23:42:41.017Z,11.20
2023-04-11T23:45:11.407Z,11.40
2023-04-11T23:47:39.932Z,11.30
2023-04-11T23:50:09.239Z,11.40
2023-04-11T23:52:37.629Z,11.60
2023-04-11T23:55:06.494Z,11.40
2023-04-11T23:57:34.983Z,11.40
